createdAt,value
2023-01-21T00:00:45.598Z,101487.88
2023-01-21T00:03:12.953Z,101497.13
2023-01-21T00:05:39.917Z,101485.63
2023-01-21T00:08:06.478Z,101490.56
2023-01-21T00:10:33.842Z,101493.03
2023-01-21T00:13:00.404Z,101488.56
2023-01-21T00:15:27.186Z,101505.00
2023-01-21T00:17:54.103Z,101505.78
2023-01-21T00:20:21.108Z,101512.91
2023-01-21T00:22:47.535Z,101508.06
2023-01-21T00:25:14.222Z,101510.69
2023-01-21T00:27:41.123Z,101524.78
2023-01-21T00:30:08.429Z,101523.31
2023-01-21T00:32:34.999Z,101524.47
2023-01-21T00:35:01.472Z,101525.34
2023-01-21T00:37:28.153Z,101525.47
2023-01-21T00:39:54.658Z,101523.84
2023-01-21T00:42:21.120Z,101537.59
2023-01-21T00:44:47.788Z,101540.19
2023-01-21T00:47:14.268Z,101528.84
2023-01-21T00:49:40.899Z,101536.38
2023-01-21T00:52:07.565Z,101543.03
2023-01-21T00:54:34.143Z,101554.97
2023-01-21T00:57:00.647Z,101547.69
2023-01-21T00:59:28.157Z,101553.53
2023-01-21T01:01:54.789Z,101553.16
2023-01-21T01:04:23.009Z,101567.63
2023-01-21T01:06:49.804Z,101563.63
2023-01-21T01:09:16.583Z,101570.03
2023-01-21T01:11:43.130Z,101568.78
2023-01-21T01:14:09.620Z,101587.41
2023-01-21T01:16:36.065Z,101586.72
2023-01-21T01:19:02.819Z,101594.81
2023-01-21T01:21:29.563Z,101599.25
2023-01-21T01:24:00.605Z,101604.66
2023-01-21T01:26:27.264Z,101599.78
2023-01-21T01:28:54.000Z,101605.09
2023-01-21T01:31:21.554Z,101607.78
2023-01-21T01:33:48.688Z,101610.41
2023-01-21T01:36:18.415Z,101606.97
2023-01-21T01:38:45.764Z,101610.59
2023-01-21T01:41:17.662Z,101610.69
2023-01-21T01:44:06.789Z,101611.41
2023-01-21T01:46:36.896Z,101617.63
2023-01-21T01:49:17.167Z,101620.22
2023-01-21T01:51:48.339Z,101627.31
2023-01-21T01:54:20.020Z,101626.44
2023-01-21T01:56:50.729Z,101629.94
2023-01-21T01:59:17.868Z,101630.66
2023-01-21T02:01:44.521Z,101636.72
2023-01-21T02:04:17.300Z,101647.28
2023-01-21T02:06:45.572Z,101656.19
2023-01-21T02:09:12.217Z,101649.25
2023-01-21T02:11:39.516Z,101657.41
2023-01-21T02:14:06.366Z,101663.53
2023-01-21T02:17:20.609Z,101661.13
2023-01-21T02:20:28.950Z,101674.25
2023-01-21T02:23:20.628Z,101665.66
2023-01-21T02:26:28.764Z,101676.94
2023-01-21T02:29:30.500Z,101683.16
2023-01-21T02:31:59.904Z,101673.66
2023-01-21T02:35:02.346Z,101678.97
2023-01-21T02:37:42.735Z,101682.69
2023-01-21T02:40:25.494Z,101674.09
2023-01-21T02:43:08.306Z,101669.28
2023-01-21T02:45:37.810Z,101678.19
2023-01-21T02:48:20.204Z,101683.63
2023-01-21T02:50:50.117Z,101684.03
2023-01-21T02:53:24.018Z,101686.06
2023-01-21T02:55:50.742Z,101689.84
2023-01-21T02:58:22.494Z,101691.88
2023-01-21T03:01:25.752Z,101696.28
2023-01-21T03:04:48.901Z,101703.59
2023-01-21T03:07:33.759Z,101700.31
2023-01-21T03:10:12.112Z,101706.72
2023-01-21T03:12:49.911Z,101706.97
2023-01-21T03:15:44.216Z,101707.16
2023-01-21T03:18:24.498Z,101710.75
2023-01-21T03:20:56.354Z,101717.00
2023-01-21T03:23:30.326Z,101715.50
2023-01-21T03:25:59.431Z,101714.75
2023-01-21T03:28:29.427Z,101713.16
2023-01-21T03:31:06.205Z,101707.94
2023-01-21T03:33:36.772Z,101698.44
2023-01-21T03:36:11.570Z,101699.34
2023-01-21T03:38:45.259Z,101703.66
2023-01-21T03:41:17.618Z,101708.97
2023-01-21T03:43:45.582Z,101714.28
2023-01-21T03:46:20.971Z,101716.97
2023-01-21T03:48:59.695Z,101710.97
2023-01-21T03:51:33.719Z,101709.28
2023-01-21T03:54:00.510Z,101711.97
2023-01-21T03:56:28.062Z,101716.38
2023-01-21T03:58:55.239Z,101726.03
2023-01-21T04:01:21.993Z,101717.19
2023-01-21T04:03:48.823Z,101722.41
2023-01-21T04:06:18.967Z,101720.59
2023-01-21T04:08:46.012Z,101716.19
2023-01-21T04:11:12.769Z,101713.59
2023-01-21T04:13:39.649Z,101714.28
2023-01-21T04:16:06.708Z,101707.16
2023-01-21T04:18:33.198Z,101719.19
2023-01-21T04:21:00.103Z,101723.59
2023-01-21T04:23:26.798Z,101732.34
2023-01-21T04:25:53.456Z,101724.41
2023-01-21T04:28:20.250Z,101723.59
2023-01-21T04:30:48.113Z,101726.22
2023-01-21T04:33:14.786Z,101725.28
2023-01-21T04:35:41.688Z,101739.25
2023-01-21T04:38:08.260Z,101734.03
2023-01-21T04:40:35.108Z,101740.16
2023-01-21T04:43:01.611Z,101738.25
2023-01-21T04:45:28.091Z,101733.75
2023-01-21T04:47:54.637Z,101737.84
2023-01-21T04:50:21.190Z,101735.94
2023-01-21T04:52:47.685Z,101738.34
2023-01-21T04:55:14.203Z,101740.63
2023-01-21T04:57:40.673Z,101741.00
2023-01-21T05:00:08.596Z,101743.72
2023-01-21T05:02:35.527Z,101745.34
2023-01-21T05:05:02.156Z,101743.53
2023-01-21T05:07:28.833Z,101746.16
2023-01-21T05:09:55.299Z,101758.16
2023-01-21T05:12:21.812Z,101753.28
2023-01-21T05:14:48.253Z,101763.66
2023-01-21T05:17:14.735Z,101757.06
2023-01-21T05:19:41.279Z,101778.13
2023-01-21T05:22:07.759Z,101767.81
2023-01-21T05:24:34.489Z,101772.22
2023-01-21T05:27:01.820Z,101777.44
2023-01-21T05:29:28.419Z,101777.22
2023-01-21T05:31:55.069Z,101782.22
2023-01-21T05:34:21.745Z,101781.19
2023-01-21T05:36:48.196Z,101799.91
2023-01-21T05:39:14.915Z,101800.97
2023-01-21T05:41:41.490Z,101799.53
2023-01-21T05:44:09.774Z,101791.16
2023-01-21T05:46:36.338Z,101795.25
2023-01-21T05:49:02.985Z,101805.56
2023-01-21T05:51:29.458Z,101802.63
2023-01-21T05:53:56.034Z,101801.59
2023-01-21T05:56:22.750Z,101810.22
2023-01-21T05:58:49.267Z,101801.75
2023-01-21T06:01:15.708Z,101812.16
2023-01-21T06:03:44.412Z,101812.03
2023-01-21T06:06:10.959Z,101808.75
2023-01-21T06:08:37.479Z,101814.97
2023-01-21T06:11:04.001Z,101812.38
2023-01-21T06:13:30.540Z,101813.84
2023-01-21T06:15:57.149Z,101823.91
2023-01-21T06:18:24.701Z,101817.16
2023-01-21T06:20:51.270Z,101820.13
2023-01-21T06:23:17.873Z,101825.66
2023-01-21T06:25:44.487Z,101834.25
2023-01-21T06:28:11.897Z,101834.72
2023-01-21T06:30:38.401Z,101836.28
2023-01-21T06:33:04.971Z,101838.56
2023-01-21T06:35:31.600Z,101848.28
2023-01-21T06:37:58.140Z,101847.41
2023-01-21T06:40:25.605Z,101849.00
2023-01-21T06:42:53.825Z,101851.34
2023-01-21T06:45:20.362Z,101855.97
2023-01-21T06:47:47.048Z,101862.44
2023-01-21T06:50:16.035Z,101862.09
2023-01-21T06:52:44.486Z,101868.66
2023-01-21T06:55:11.132Z,101866.63
2023-01-21T06:57:38.543Z,101868.88
2023-01-21T07:00:06.484Z,101873.72
2023-01-21T07:02:33.040Z,101873.38
2023-01-21T07:04:59.533Z,101875.63
2023-01-21T07:07:26.609Z,101882.06
2023-01-21T07:13:47.025Z,101900.19
2023-01-21T07:16:13.680Z,101910.03
2023-01-21T07:18:40.129Z,101908.41
2023-01-21T07:21:06.542Z,101912.03
2023-01-21T07:23:33.012Z,101898.22
2023-01-21T07:25:59.467Z,101907.94
2023-01-21T07:28:25.968Z,101917.69
2023-01-21T07:30:52.482Z,101915.19
2023-01-21T07:33:18.988Z,101923.13
2023-01-21T07:35:45.494Z,101926.75
2023-01-21T07:38:11.952Z,101926.94
2023-01-21T07:40:38.431Z,101927.88
2023-01-21T07:43:04.968Z,101930.56
2023-01-21T07:45:31.573Z,101945.31
2023-01-21T07:47:59.115Z,101935.00
2023-01-21T07:50:25.884Z,101946.44
2023-01-21T07:52:55.282Z,101955.28
2023-01-21T07:55:22.858Z,101951.88
2023-01-21T07:57:49.293Z,101950.28
2023-01-21T08:00:16.136Z,101948.59
2023-01-21T08:02:42.749Z,101942.56
2023-01-21T08:05:10.096Z,101952.09
2023-01-21T08:07:36.758Z,101938.84
2023-01-21T08:10:03.503Z,101938.94
2023-01-21T08:12:29.949Z,101947.47
2023-01-21T08:14:56.411Z,101946.66
2023-01-21T08:17:23.007Z,101950.50
2023-01-21T08:19:49.951Z,101947.31
2023-01-21T08:22:16.433Z,101942.31
2023-01-21T08:24:42.896Z,101941.53
2023-01-21T08:27:09.565Z,101938.91
2023-01-21T08:29:36.089Z,101938.81
2023-01-21T08:32:02.602Z,101944.81
2023-01-21T08:34:29.123Z,101940.16
2023-01-21T08:36:55.553Z,101945.19
2023-01-21T08:39:22.104Z,101945.75
2023-01-21T08:41:50.994Z,101940.53
2023-01-21T08:44:17.555Z,101944.88
2023-01-21T08:46:44.104Z,101953.25
2023-01-21T08:49:10.581Z,101948.50
2023-01-21T08:51:37.141Z,101943.09
2023-01-21T08:54:06.503Z,101943.84
2023-01-21T08:56:33.167Z,101940.22
2023-01-21T08:59:00.102Z,101937.63
2023-01-21T09:01:26.940Z,101951.69
2023-01-21T09:03:57.587Z,101952.59
2023-01-21T09:06:26.135Z,101942.16
2023-01-21T09:08:53.010Z,101945.13
2023-01-21T09:11:19.693Z,101946.50
2023-01-21T09:13:46.554Z,101946.16
2023-01-21T09:16:18.977Z,101950.25
2023-01-21T09:18:46.227Z,101951.06
2023-01-21T09:21:13.862Z,101958.97
2023-01-21T09:23:41.282Z,101953.06
2023-01-21T09:26:13.149Z,101963.94
2023-01-21T09:28:42.341Z,101952.84
2023-01-21T09:31:14.672Z,101964.59
2023-01-21T09:33:43.822Z,101962.31
2023-01-21T09:36:24.772Z,101957.34
2023-01-21T09:38:51.325Z,101959.59
2023-01-21T09:41:25.329Z,101960.81
2023-01-21T09:43:57.550Z,101967.50
2023-01-21T09:46:36.778Z,101972.44
2023-01-21T09:49:06.517Z,101976.47
2023-01-21T09:51:46.018Z,101975.34
2023-01-21T09:54:21.397Z,101975.66
2023-01-21T09:57:15.212Z,101974.75
2023-01-21T09:59:57.709Z,101987.09
2023-01-21T10:02:54.341Z,101979.63
2023-01-21T10:05:45.349Z,101976.44
2023-01-21T10:08:44.201Z,101980.72
2023-01-21T10:11:48.249Z,101977.22
2023-01-21T10:14:27.029Z,101986.16
2023-01-21T10:17:25.757Z,101996.09
2023-01-21T10:20:12.079Z,101987.31
2023-01-21T10:22:48.012Z,101978.34
2023-01-21T10:25:32.570Z,101982.16
2023-01-21T10:28:05.105Z,101978.06
2023-01-21T10:30:40.072Z,101982.78
2023-01-21T10:33:17.088Z,101979.59
2023-01-21T10:36:11.636Z,101974.09
2023-01-21T10:38:48.853Z,101977.00
2023-01-21T10:41:27.926Z,101982.44
2023-01-21T10:44:14.612Z,101979.53
2023-01-21T10:46:56.432Z,101972.00
2023-01-21T10:49:51.087Z,101971.41
2023-01-21T10:52:23.581Z,101987.69
2023-01-21T10:55:07.655Z,101979.56
2023-01-21T10:57:54.981Z,101984.50
2023-01-21T11:00:26.028Z,101978.69
2023-01-21T11:02:57.302Z,101980.47
2023-01-21T11:05:26.243Z,101982.69
2023-01-21T11:07:54.178Z,101981.28
2023-01-21T11:10:24.175Z,101982.38
2023-01-21T11:12:51.287Z,101974.94
2023-01-21T11:15:20.299Z,101975.94
2023-01-21T11:17:50.264Z,101980.56
2023-01-21T11:20:21.957Z,101975.66
2023-01-21T11:22:49.024Z,101973.63
2023-01-21T11:25:24.495Z,101976.13
2023-01-21T11:27:50.959Z,101970.31
2023-01-21T11:30:50.619Z,101975.97
2023-01-21T11:33:27.103Z,101977.16
2023-01-21T11:35:55.179Z,101976.66
2023-01-21T11:38:34.551Z,101971.81
2023-01-21T11:41:06.067Z,101976.53
2023-01-21T11:43:35.489Z,101964.81
2023-01-21T11:46:21.597Z,101967.78
2023-01-21T11:48:48.128Z,101967.38
2023-01-21T11:51:14.986Z,101972.31
2023-01-21T11:53:41.531Z,101974.44
2023-01-21T11:56:08.513Z,101957.91
2023-01-21T11:58:37.334Z,101962.38
2023-01-21T12:01:08.371Z,101969.38
2023-01-21T12:03:40.987Z,101959.00
2023-01-21T12:06:08.381Z,101961.72
2023-01-21T12:08:37.614Z,101961.94
2023-01-21T12:11:07.177Z,101959.09
2023-01-21T12:13:55.426Z,101964.34
2023-01-21T12:16:30.589Z,101963.56
2023-01-21T12:18:59.683Z,101963.72
2023-01-21T12:21:54.733Z,101953.19
2023-01-21T12:24:35.458Z,101949.03
2023-01-21T12:27:20.446Z,101953.06
2023-01-21T12:30:12.063Z,101947.50
2023-01-21T12:32:42.938Z,101948.97
2023-01-21T12:35:16.457Z,101951.16
2023-01-21T12:37:46.829Z,101938.53
2023-01-21T12:40:19.399Z,101937.13
2023-01-21T12:42:50.291Z,101932.97
2023-01-21T12:45:27.772Z,101935.16
2023-01-21T12:47:59.416Z,101935.25
2023-01-21T12:50:31.895Z,101929.91
2023-01-21T12:53:25.470Z,101927.91
2023-01-21T12:56:20.807Z,101932.97
2023-01-21T12:58:59.426Z,101922.50
2023-01-21T13:01:41.366Z,101933.84
2023-01-21T13:04:23.777Z,101925.22
2023-01-21T13:07:08.120Z,101929.53
2023-01-21T13:09:57.296Z,101935.69
2023-01-21T13:12:27.605Z,101933.16
2023-01-21T13:15:01.661Z,101938.38
2023-01-21T13:17:32.089Z,101933.69
2023-01-21T13:19:59.242Z,101924.03
2023-01-21T13:23:01.872Z,101929.28
2023-01-21T13:25:37.275Z,101930.97
2023-01-21T13:28:13.892Z,101944.50
2023-01-21T13:30:47.057Z,101929.41
2023-01-21T13:33:42.095Z,101931.22
2023-01-21T13:36:25.554Z,101934.72
2023-01-21T13:39:05.465Z,101937.16
2023-01-21T13:41:56.602Z,101931.13
2023-01-21T13:44:36.246Z,101929.41
2023-01-21T13:47:09.220Z,101938.34
2023-01-21T13:50:18.100Z,101928.50
2023-01-21T13:52:56.824Z,101929.31
2023-01-21T13:55:37.848Z,101933.63
2023-01-21T13:58:22.721Z,101942.31
2023-01-21T14:00:58.815Z,101942.75
2023-01-21T14:03:39.554Z,101933.81
2023-01-21T14:06:09.245Z,101938.13
2023-01-21T14:09:12.710Z,101939.81
2023-01-21T14:11:45.712Z,101940.66
2023-01-21T14:14:45.263Z,101935.94
2023-01-21T14:17:27.000Z,101934.75
2023-01-21T14:20:21.541Z,101931.75
2023-01-21T14:23:38.736Z,101936.56
2023-01-21T14:26:29.919Z,101931.88
2023-01-21T14:29:06.623Z,101930.78
2023-01-21T14:31:42.444Z,101923.53
2023-01-21T14:34:41.997Z,101934.81
2023-01-21T14:37:17.812Z,101943.34
2023-01-21T14:39:57.661Z,101930.09
2023-01-21T14:42:41.066Z,101926.38
2023-01-21T14:45:08.303Z,101922.66
2023-01-21T14:47:34.817Z,101916.34
2023-01-21T14:50:01.555Z,101922.38
2023-01-21T14:52:31.961Z,101923.78
2023-01-21T14:54:59.299Z,101920.16
2023-01-21T14:57:28.461Z,101916.56
2023-01-21T15:00:04.449Z,101914.75
2023-01-21T15:02:41.301Z,101909.53
2023-01-21T15:05:09.204Z,101919.19
2023-01-21T15:07:40.009Z,101916.56
2023-01-21T15:10:19.584Z,101929.72
2023-01-21T15:12:56.291Z,101932.34
2023-01-21T15:15:34.233Z,101933.22
2023-01-21T15:18:04.379Z,101926.19
2023-01-21T15:20:39.739Z,101925.38
2023-01-21T15:23:29.962Z,101928.81
2023-01-21T15:26:11.187Z,101924.41
2023-01-21T15:28:43.704Z,101926.03
2023-01-21T15:31:23.472Z,101929.31
2023-01-21T15:33:55.394Z,101930.00
2023-01-21T15:36:31.162Z,101922.00
2023-01-21T15:39:02.248Z,101927.72
2023-01-21T15:41:57.189Z,101919.69
2023-01-21T15:44:32.959Z,101921.28
2023-01-21T15:47:18.769Z,101920.38
2023-01-21T15:49:59.986Z,101922.91
2023-01-21T15:52:57.281Z,101918.38
2023-01-21T15:55:39.512Z,101913.97
2023-01-21T15:58:11.748Z,101915.56
2023-01-21T16:00:50.040Z,101904.00
2023-01-21T16:03:29.605Z,101896.88
2023-01-21T16:06:17.557Z,101902.00
2023-01-21T16:09:22.466Z,101918.41
2023-01-21T16:12:11.376Z,101908.72
2023-01-21T16:14:52.566Z,101911.25
2023-01-21T16:17:44.758Z,101927.81
2023-01-21T16:20:13.205Z,101903.31
2023-01-21T16:22:46.901Z,101915.47
2023-01-21T16:25:16.660Z,101914.53
2023-01-21T16:27:48.820Z,101911.94
2023-01-21T16:30:20.266Z,101908.34
2023-01-21T16:32:47.107Z,101910.16
2023-01-21T16:35:13.893Z,101913.66
2023-01-21T16:37:43.501Z,101912.84
2023-01-21T16:40:19.331Z,101916.38
2023-01-21T16:42:45.986Z,101911.94
2023-01-21T16:45:18.823Z,101902.31
2023-01-21T16:47:59.474Z,101904.81
2023-01-21T16:50:28.922Z,101911.06
2023-01-21T16:52:57.286Z,101902.31
2023-01-21T16:55:26.447Z,101904.09
2023-01-21T16:57:55.432Z,101896.25
2023-01-21T17:00:23.364Z,101906.72
2023-01-21T17:02:50.041Z,101897.19
2023-01-21T17:05:17.046Z,101900.00
2023-01-21T17:07:47.452Z,101900.91
2023-01-21T17:10:24.425Z,101905.34
2023-01-21T17:13:01.032Z,101906.22
2023-01-21T17:15:41.736Z,101910.66
2023-01-21T17:18:22.525Z,101905.53
2023-01-21T17:20:53.991Z,101910.06
2023-01-21T17:23:30.078Z,101894.47
2023-01-21T17:26:03.506Z,101897.97
2023-01-21T17:28:37.702Z,101904.09
2023-01-21T17:31:31.469Z,101909.34
2023-01-21T17:34:20.189Z,101921.78
2023-01-21T17:36:49.179Z,101921.09
2023-01-21T17:39:44.795Z,101927.22
2023-01-21T17:42:21.543Z,101924.69
2023-01-21T17:45:06.795Z,101923.09
2023-01-21T17:47:49.898Z,101925.84
2023-01-21T17:50:32.084Z,101927.63
2023-01-21T17:53:01.623Z,101927.63
2023-01-21T17:55:38.645Z,101933.84
2023-01-21T17:58:30.943Z,101925.19
2023-01-21T18:01:00.555Z,101922.59
2023-01-21T18:03:27.459Z,101918.97
2023-01-21T18:05:55.144Z,101914.47
2023-01-21T18:08:21.719Z,101921.38
2023-01-21T18:10:48.253Z,101921.28
2023-01-21T18:13:19.775Z,101919.38
2023-01-21T18:15:51.296Z,101916.75
2023-01-21T18:18:21.920Z,101914.38
2023-01-21T18:20:48.376Z,101913.56
2023-01-21T18:23:15.284Z,101913.56
2023-01-21T18:25:42.490Z,101902.91
2023-01-21T18:28:18.612Z,101907.13
2023-01-21T18:30:46.201Z,101912.34
2023-01-21T18:33:13.174Z,101920.88
2023-01-21T18:35:42.772Z,101891.28
2023-01-21T18:38:27.713Z,101898.09
2023-01-21T18:40:57.678Z,101897.19
2023-01-21T18:43:25.030Z,101879.69
2023-01-21T18:45:53.989Z,101888.25
2023-01-21T18:48:27.479Z,101892.47
2023-01-21T18:50:54.438Z,101903.00
2023-01-21T18:53:21.063Z,101873.38
2023-01-21T18:55:50.765Z,101875.19
2023-01-21T18:58:17.425Z,101882.22
2023-01-21T19:00:44.009Z,101882.28
2023-01-21T19:03:13.765Z,101884.03
2023-01-21T19:05:42.376Z,101874.47
2023-01-21T19:08:19.445Z,101885.72
2023-01-21T19:10:46.110Z,101877.81
2023-01-21T19:13:12.543Z,101877.81
2023-01-21T19:15:39.300Z,101874.38
2023-01-21T19:18:13.965Z,101871.75
2023-01-21T19:20:41.917Z,101876.19
2023-01-21T19:23:18.141Z,101878.91
2023-01-21T19:25:50.281Z,101867.53
2023-01-21T19:28:16.934Z,101885.03
2023-01-21T19:30:45.138Z,101883.22
2023-01-21T19:33:12.719Z,101876.97
2023-01-21T19:35:42.895Z,101889.84
2023-01-21T19:38:16.557Z,101889.66
2023-01-21T19:40:43.057Z,101897.28
2023-01-21T19:43:13.187Z,101892.16
2023-01-21T19:45:39.657Z,101871.53
2023-01-21T19:48:12.110Z,101874.94
2023-01-21T19:50:39.050Z,101869.28
2023-01-21T19:53:06.075Z,101859.84
2023-01-21T19:55:35.643Z,101854.69
2023-01-21T19:58:04.564Z,101863.78
2023-01-21T20:00:34.104Z,101875.59
2023-01-21T20:03:01.073Z,101885.94
2023-01-21T20:05:29.953Z,101893.66
2023-01-21T20:07:56.511Z,101899.66
2023-01-21T20:10:26.683Z,101891.06
2023-01-21T20:12:53.472Z,101888.84
2023-01-21T20:15:29.078Z,101892.38
2023-01-21T20:17:57.707Z,101896.09
2023-01-21T20:20:29.556Z,101889.38
2023-01-21T20:22:56.526Z,101882.78
2023-01-21T20:25:25.862Z,101865.34
2023-01-21T20:27:56.527Z,101871.47
2023-01-21T20:30:26.891Z,101863.41
2023-01-21T20:32:54.356Z,101865.34
2023-01-21T20:35:23.036Z,101851.38
2023-01-21T20:37:52.598Z,101846.41
2023-01-21T20:40:28.095Z,101848.03
2023-01-21T20:42:57.622Z,101844.91
2023-01-21T20:45:33.310Z,101850.50
2023-01-21T20:48:03.013Z,101850.88
2023-01-21T20:50:33.533Z,101847.47
2023-01-21T20:53:00.085Z,101836.81
2023-01-21T20:55:27.988Z,101847.06
2023-01-21T20:57:54.847Z,101846.03
2023-01-21T21:00:23.377Z,101844.34
2023-01-21T21:02:50.131Z,101853.28
2023-01-21T21:05:18.108Z,101855.06
2023-01-21T21:07:45.213Z,101861.19
2023-01-21T21:10:25.317Z,101861.31
2023-01-21T21:12:52.821Z,101854.28
2023-01-21T21:15:20.244Z,101859.50
2023-01-21T21:17:47.269Z,101858.69
2023-01-21T21:20:32.091Z,101861.41
2023-01-21T21:22:58.572Z,101853.28
2023-01-21T21:25:27.648Z,101853.03
2023-01-21T21:27:55.293Z,101857.25
2023-01-21T21:30:27.810Z,101854.44
2023-01-21T21:32:56.604Z,101857.59
2023-01-21T21:35:28.631Z,101849.00
2023-01-21T21:37:58.511Z,101847.41
2023-01-21T21:40:27.153Z,101851.72
2023-01-21T21:43:12.868Z,101853.50
2023-01-21T21:45:59.933Z,101849.22
2023-01-21T21:48:38.674Z,101852.63
2023-01-21T21:51:06.316Z,101855.72
2023-01-21T21:53:32.933Z,101856.72
2023-01-21T21:56:13.331Z,101859.81
2023-01-21T21:58:41.953Z,101863.09
2023-01-21T22:01:16.683Z,101870.81
2023-01-21T22:03:44.140Z,101858.34
2023-01-21T22:06:11.536Z,101855.75
2023-01-21T22:08:41.353Z,101858.13
2023-01-21T22:11:12.964Z,101852.00
2023-01-21T22:13:40.531Z,101850.31
2023-01-21T22:16:10.574Z,101852.94
2023-01-21T22:18:37.166Z,101856.66
2023-01-21T22:21:10.979Z,101863.56
2023-01-21T22:23:37.945Z,101863.56
2023-01-21T22:26:06.768Z,101869.56
2023-01-21T22:28:35.190Z,101870.59
2023-01-21T22:31:04.152Z,101875.09
2023-01-21T22:33:32.268Z,101868.00
2023-01-21T22:36:01.906Z,101865.16
2023-01-21T22:38:28.419Z,101862.63
2023-01-21T22:40:55.805Z,101868.56
2023-01-21T22:43:22.377Z,101872.97
2023-01-21T22:45:49.292Z,101865.03
2023-01-21T22:48:16.394Z,101872.06
2023-01-21T22:50:46.499Z,101868.56
2023-01-21T22:53:13.516Z,101869.47
2023-01-21T22:55:40.099Z,101865.03
2023-01-21T22:58:07.106Z,101866.06
2023-01-21T23:00:39.499Z,101863.16
2023-01-21T23:03:07.543Z,101863.00
2023-01-21T23:05:35.203Z,101852.59
2023-01-21T23:08:01.765Z,101863.25
2023-01-21T23:10:28.344Z,101853.72
2023-01-21T23:12:54.886Z,101852.00
2023-01-21T23:15:22.955Z,101847.72
2023-01-21T23:17:51.285Z,101844.31
2023-01-21T23:20:18.173Z,101848.75
2023-01-21T23:22:45.221Z,101847.00
2023-01-21T23:25:13.623Z,101847.25
2023-01-21T23:27:41.159Z,101849.97
2023-01-21T23:30:10.439Z,101849.16
2023-01-21T23:32:37.073Z,101847.47
2023-01-21T23:35:03.784Z,101851.19
2023-01-21T23:37:30.322Z,101847.91
2023-01-21T23:39:56.805Z,101839.28
2023-01-21T23:42:23.708Z,101843.56
2023-01-21T23:44:50.685Z,101836.75
2023-01-21T23:47:17.857Z,101842.22
2023-01-21T23:49:44.446Z,101845.03
2023-01-21T23:52:12.451Z,101846.03
2023-01-21T23:54:40.254Z,101848.53
2023-01-21T23:57:07.436Z,101841.31
2023-01-21T23:59:35.537Z,101848.19
